Loon Lake, Canada
Current Conditions -  °F | °C
As of 6:00 PM on Thursday 20 Nov 2014 (Local Time) from CYLJ Reporting Station
Haze Haze  
Wind Chill: 17°   Ceiling: Unl
Heat Index: 23°   Visibility: 4mi
Dew Point: 19°   Wind: 5mph
Humidity: 86%   Direction: 190°S
Pressure: 29.57"   Gusts: NA
Location:  54.03°N, 109.16°W
Report Text: CYLJ 210000Z 19004KT 4SM BR FEW010 FEW180 FEW250 M05/M07 A2957 RMK SC1AC1CI1 CI TR SN COV/TRACE LOOSE LAST OBS/NXT 21 1200 UTC SLP046
Loading
Personal Weather Stations






























Interactive Weather Map New forecast layout! Learn more

10-Day Weather Forecast

Advertisements
Track Severe Weather on mobile